createdAt,value
2023-04-07T00:00:59.929Z,10.26
2023-04-07T00:11:21.317Z,10.19
2023-04-07T00:21:42.665Z,10.09
2023-04-07T00:32:04.093Z,9.94
2023-04-07T00:42:25.678Z,9.74
2023-04-07T00:52:47.217Z,9.55
2023-04-07T01:03:29.114Z,9.49
2023-04-07T01:13:51.660Z,9.40
2023-04-07T01:24:13.012Z,9.30
2023-04-07T01:34:35.142Z,9.18
2023-04-07T01:44:57.442Z,9.11
2023-04-07T01:55:18.842Z,9.01
2023-04-07T02:05:40.406Z,8.78
2023-04-07T02:16:02.470Z,8.56
2023-04-07T02:26:23.901Z,8.42
2023-04-07T02:36:45.544Z,8.28
2023-04-07T02:47:06.979Z,8.22
2023-04-07T02:57:28.366Z,8.02
2023-04-07T03:07:49.718Z,7.84
2023-04-07T03:18:11.561Z,7.81
2023-04-07T03:28:32.937Z,7.83
2023-04-07T03:38:54.268Z,7.84
2023-04-07T03:49:15.668Z,7.79
2023-04-07T03:59:37.031Z,7.76
2023-04-07T04:09:58.393Z,7.66
2023-04-07T04:20:19.866Z,7.56
2023-04-07T04:30:41.213Z,7.42
2023-04-07T04:41:02.615Z,7.39
2023-04-07T04:51:24.168Z,7.30
2023-04-07T05:01:45.593Z,7.33
2023-04-07T05:12:07.278Z,7.27
2023-04-07T05:22:28.684Z,7.13
2023-04-07T05:32:50.369Z,6.97
2023-04-07T05:43:12.199Z,6.90
2023-04-07T05:53:33.611Z,6.83
2023-04-07T06:03:55.670Z,6.86
2023-04-07T06:14:17.379Z,6.81
2023-04-07T06:24:38.717Z,7.01
2023-04-07T06:35:01.038Z,7.13
2023-04-07T06:45:22.401Z,7.39
2023-04-07T06:55:43.772Z,7.61
2023-04-07T07:06:05.536Z,7.79
2023-04-07T07:16:27.005Z,7.98
2023-04-07T07:26:48.470Z,8.22
2023-04-07T07:37:09.844Z,8.36
2023-04-07T07:47:31.292Z,8.51
2023-04-07T07:57:52.824Z,8.76
2023-04-07T08:08:14.209Z,8.94
2023-04-07T08:18:35.891Z,9.24
2023-04-07T08:28:58.442Z,9.49
2023-04-07T08:39:19.920Z,9.87
2023-04-07T08:49:44.789Z,10.18
2023-04-07T09:00:08.125Z,10.51
2023-04-07T09:10:30.568Z,10.64
2023-04-07T09:20:54.977Z,10.80
2023-04-07T09:31:16.766Z,11.13
2023-04-07T09:41:38.225Z,11.30
2023-04-07T09:52:00.751Z,11.56
2023-04-07T10:02:23.032Z,11.75
2023-04-07T10:12:45.314Z,11.93
2023-04-07T10:23:13.234Z,12.04
2023-04-07T10:33:44.677Z,12.25
2023-04-07T10:44:06.792Z,12.47
2023-04-07T10:54:29.421Z,12.66
2023-04-07T11:04:51.104Z,12.76
2023-04-07T11:15:22.303Z,12.96
2023-04-07T11:25:44.937Z,13.17
2023-04-07T11:36:06.640Z,13.39
2023-04-07T11:46:28.473Z,13.45
2023-04-07T11:56:51.496Z,13.55
2023-04-07T12:07:12.868Z,13.85
2023-04-07T12:17:34.268Z,13.97
2023-04-07T12:27:55.782Z,14.21
2023-04-07T12:38:17.226Z,14.31
2023-04-07T12:48:38.576Z,14.53
2023-04-07T12:59:00.004Z,14.58
2023-04-07T13:09:21.373Z,14.84
2023-04-07T13:19:43.102Z,14.93
2023-04-07T13:30:04.794Z,14.94
2023-04-07T13:40:26.168Z,14.95
2023-04-07T13:50:47.582Z,14.80
2023-04-07T14:01:09.145Z,14.79
2023-04-07T14:11:30.648Z,14.89
2023-04-07T14:21:52.046Z,15.13
2023-04-07T14:32:13.538Z,15.29
2023-04-07T14:42:35.695Z,15.58
2023-04-07T14:52:57.054Z,15.78
2023-04-07T15:03:18.588Z,16.15
2023-04-07T15:13:40.275Z,16.34
2023-04-07T15:24:01.632Z,16.30
2023-04-07T15:34:23.033Z,16.34
2023-04-07T15:44:44.446Z,16.61
2023-04-07T15:55:05.992Z,16.72
2023-04-07T16:05:27.339Z,16.75
2023-04-07T16:15:48.740Z,16.80
2023-04-07T16:26:10.975Z,17.15
2023-04-07T16:36:32.403Z,17.22
2023-04-07T16:46:53.857Z,16.66
2023-04-07T16:57:15.758Z,16.26
2023-04-07T17:07:37.116Z,15.67
2023-04-07T17:17:58.746Z,15.21
2023-04-07T17:28:20.229Z,14.78
2023-04-07T17:38:41.577Z,14.36
2023-04-07T17:49:04.731Z,13.95
2023-04-07T17:59:26.112Z,13.39
2023-04-07T18:09:47.555Z,13.08
2023-04-07T18:20:09.243Z,12.77
2023-04-07T18:30:30.626Z,12.38
2023-04-07T18:40:51.975Z,12.03
2023-04-07T18:51:13.509Z,11.75
2023-04-07T19:01:35.028Z,11.45
2023-04-07T19:11:57.017Z,11.28
2023-04-07T19:22:19.363Z,11.05
2023-04-07T19:32:40.751Z,10.96
2023-04-07T19:43:02.197Z,10.80
2023-04-07T19:53:25.369Z,10.64
2023-04-07T20:03:47.002Z,10.52
2023-04-07T20:14:08.524Z,10.42
2023-04-07T20:24:30.372Z,10.14
2023-04-07T20:34:52.228Z,9.98
2023-04-07T20:45:13.889Z,9.76
2023-04-07T20:55:35.276Z,9.58
2023-04-07T21:05:57.346Z,9.42
2023-04-07T21:16:19.005Z,9.14
2023-04-07T21:26:40.474Z,8.95
2023-04-07T21:37:01.934Z,8.80
2023-04-07T21:47:23.402Z,8.68
2023-04-07T21:57:45.176Z,8.55
2023-04-07T22:08:06.598Z,8.35
2023-04-07T22:18:28.361Z,8.28
2023-04-07T22:28:49.788Z,8.18
2023-04-07T22:39:11.625Z,8.11
2023-04-07T22:49:33.094Z,7.97
2023-04-07T22:59:54.580Z,7.93
2023-04-07T23:10:16.094Z,7.91
2023-04-07T23:20:37.571Z,7.76
2023-04-07T23:30:58.990Z,7.76
2023-04-07T23:41:20.357Z,7.77
2023-04-07T23:51:41.762Z,7.77
